sensor_id;sensor_type;location;lat;lon;timestamp;temperature;humidity
22321;DHT22;11328;53.928;18.522;2023-08-08T00:02:00;14.90;99.90
22321;DHT22;11328;53.928;18.522;2023-08-08T00:04:27;15.00;99.90
22321;DHT22;11328;53.928;18.522;2023-08-08T00:06:54;14.90;99.90
22321;DHT22;11328;53.928;18.522;2023-08-08T00:09:21;14.90;99.90
22321;DHT22;11328;53.928;18.522;2023-08-08T00:11:48;14.80;99.90
22321;DHT22;11328;53.928;18.522;2023-08-08T00:14:15;14.80;99.90
22321;DHT22;11328;53.928;18.522;2023-08-08T00:16:42;14.80;99.90
22321;DHT22;11328;53.928;18.522;2023-08-08T00:19:09;14.70;99.90
22321;DHT22;11328;53.928;18.522;2023-08-08T00:21:36;14.80;99.90
22321;DHT22;11328;53.928;18.522;2023-08-08T00:24:03;14.80;99.90
22321;DHT22;11328;53.928;18.522;2023-08-08T00:26:30;14.80;99.90
22321;DHT22;11328;53.928;18.522;2023-08-08T00:28:57;14.70;99.90
22321;DHT22;11328;53.928;18.522;2023-08-08T00:31:24;14.60;99.90
22321;DHT22;11328;53.928;18.522;2023-08-08T00:33:51;14.60;99.90
22321;DHT22;11328;53.928;18.522;2023-08-08T00:36:18;14.60;99.90
22321;DHT22;11328;53.928;18.522;2023-08-08T00:38:45;14.60;99.90
22321;DHT22;11328;53.928;18.522;2023-08-08T00:41:12;14.60;99.90
22321;DHT22;11328;53.928;18.522;2023-08-08T00:43:39;14.40;99.90
22321;DHT22;11328;53.928;18.522;2023-08-08T00:46:06;14.50;99.90
22321;DHT22;11328;53.928;18.522;2023-08-08T00:48:33;14.50;99.90
22321;DHT22;11328;53.928;18.522;2023-08-08T00:51:01;14.50;99.90
22321;DHT22;11328;53.928;18.522;2023-08-08T00:53:29;14.40;99.90
22321;DHT22;11328;53.928;18.522;2023-08-08T00:55:58;14.40;99.90
22321;DHT22;11328;53.928;18.522;2023-08-08T00:58:26;14.30;99.90
22321;DHT22;11328;53.928;18.522;2023-08-08T01:00:55;14.40;99.90
22321;DHT22;11328;53.928;18.522;2023-08-08T01:03:24;14.40;99.90
22321;DHT22;11328;53.928;18.522;2023-08-08T01:06:03;14.40;99.90
22321;DHT22;11328;53.928;18.522;2023-08-08T01:11:36;14.50;99.90
22321;DHT22;11328;53.928;18.522;2023-08-08T01:14:05;14.30;99.90
22321;DHT22;11328;53.928;18.522;2023-08-08T01:16:34;14.30;99.90
22321;DHT22;11328;53.928;18.522;2023-08-08T01:19:01;14.30;99.90
22321;DHT22;11328;53.928;18.522;2023-08-08T01:21:35;14.40;99.90
22321;DHT22;11328;53.928;18.522;2023-08-08T01:24:22;14.40;99.90
22321;DHT22;11328;53.928;18.522;2023-08-08T01:26:50;14.40;99.90
22321;DHT22;11328;53.928;18.522;2023-08-08T01:29:17;14.20;99.90
22321;DHT22;11328;53.928;18.522;2023-08-08T01:31:44;14.20;99.90
22321;DHT22;11328;53.928;18.522;2023-08-08T01:34:11;14.10;99.90
22321;DHT22;11328;53.928;18.522;2023-08-08T01:36:48;14.00;99.90
22321;DHT22;11328;53.928;18.522;2023-08-08T01:39:19;14.10;99.90
22321;DHT22;11328;53.928;18.522;2023-08-08T01:41:50;14.00;99.90
22321;DHT22;11328;53.928;18.522;2023-08-08T01:44:17;14.00;99.90
22321;DHT22;11328;53.928;18.522;2023-08-08T01:46:45;14.00;99.90
22321;DHT22;11328;53.928;18.522;2023-08-08T01:49:12;14.00;99.90
22321;DHT22;11328;53.928;18.522;2023-08-08T01:51:39;14.10;99.90
22321;DHT22;11328;53.928;18.522;2023-08-08T01:54:06;14.00;99.90
22321;DHT22;11328;53.928;18.522;2023-08-08T01:56:33;14.00;99.90
22321;DHT22;11328;53.928;18.522;2023-08-08T01:59:00;14.10;99.90
22321;DHT22;11328;53.928;18.522;2023-08-08T02:01:27;14.10;99.90
22321;DHT22;11328;53.928;18.522;2023-08-08T02:03:54;14.10;99.90
22321;DHT22;11328;53.928;18.522;2023-08-08T02:06:22;14.00;99.90
22321;DHT22;11328;53.928;18.522;2023-08-08T02:08:49;14.10;99.90
22321;DHT22;11328;53.928;18.522;2023-08-08T02:11:16;14.10;99.90
22321;DHT22;11328;53.928;18.522;2023-08-08T02:13:43;14.10;99.90
22321;DHT22;11328;53.928;18.522;2023-08-08T02:16:09;14.10;99.90
22321;DHT22;11328;53.928;18.522;2023-08-08T02:18:36;14.10;99.90
22321;DHT22;11328;53.928;18.522;2023-08-08T02:21:07;14.10;99.90
22321;DHT22;11328;53.928;18.522;2023-08-08T02:23:35;14.30;99.90
22321;DHT22;11328;53.928;18.522;2023-08-08T02:26:02;14.20;99.90
22321;DHT22;11328;53.928;18.522;2023-08-08T02:28:29;14.20;99.90
22321;DHT22;11328;53.928;18.522;2023-08-08T02:30:56;14.20;99.90
22321;DHT22;11328;53.928;18.522;2023-08-08T02:33:23;14.20;99.90
22321;DHT22;11328;53.928;18.522;2023-08-08T02:35:50;14.20;99.90
22321;DHT22;11328;53.928;18.522;2023-08-08T02:38:17;14.20;99.90
22321;DHT22;11328;53.928;18.522;2023-08-08T02:40:43;14.20;99.90
22321;DHT22;11328;53.928;18.522;2023-08-08T02:43:10;14.20;99.90
22321;DHT22;11328;53.928;18.522;2023-08-08T02:45:38;14.20;99.90
22321;DHT22;11328;53.928;18.522;2023-08-08T02:48:05;14.30;99.90
22321;DHT22;11328;53.928;18.522;2023-08-08T02:50:32;14.30;99.90
22321;DHT22;11328;53.928;18.522;2023-08-08T02:52:59;14.30;99.90
22321;DHT22;11328;53.928;18.522;2023-08-08T02:55:26;14.30;99.90
22321;DHT22;11328;53.928;18.522;2023-08-08T02:57:53;14.20;99.90
22321;DHT22;11328;53.928;18.522;2023-08-08T03:00:20;14.30;99.90
22321;DHT22;11328;53.928;18.522;2023-08-08T03:02:47;14.30;99.90
22321;DHT22;11328;53.928;18.522;2023-08-08T03:05:14;14.30;99.90
22321;DHT22;11328;53.928;18.522;2023-08-08T03:07:41;14.40;99.90
22321;DHT22;11328;53.928;18.522;2023-08-08T03:10:08;14.30;99.90
22321;DHT22;11328;53.928;18.522;2023-08-08T03:12:35;14.30;99.90
22321;DHT22;11328;53.928;18.522;2023-08-08T03:15:05;14.30;99.90
22321;DHT22;11328;53.928;18.522;2023-08-08T03:17:32;14.50;99.90
22321;DHT22;11328;53.928;18.522;2023-08-08T03:20:01;14.40;99.90
22321;DHT22;11328;53.928;18.522;2023-08-08T03:22:30;14.50;99.90
22321;DHT22;11328;53.928;18.522;2023-08-08T03:24:57;14.40;99.90
22321;DHT22;11328;53.928;18.522;2023-08-08T03:27:24;14.40;99.90
22321;DHT22;11328;53.928;18.522;2023-08-08T03:29:51;14.40;99.90
22321;DHT22;11328;53.928;18.522;2023-08-08T03:32:18;14.40;99.90
22321;DHT22;11328;53.928;18.522;2023-08-08T03:34:45;14.40;99.90
22321;DHT22;11328;53.928;18.522;2023-08-08T03:37:12;14.40;99.90
22321;DHT22;11328;53.928;18.522;2023-08-08T03:39:39;14.40;99.90
22321;DHT22;11328;53.928;18.522;2023-08-08T03:42:06;14.50;99.90
22321;DHT22;11328;53.928;18.522;2023-08-08T03:44:34;14.50;99.90
22321;DHT22;11328;53.928;18.522;2023-08-08T03:47:01;14.40;99.90
22321;DHT22;11328;53.928;18.522;2023-08-08T03:49:44;14.50;99.90
22321;DHT22;11328;53.928;18.522;2023-08-08T03:52:11;14.60;99.90
22321;DHT22;11328;53.928;18.522;2023-08-08T03:54:39;14.60;99.90
22321;DHT22;11328;53.928;18.522;2023-08-08T03:57:06;14.60;99.90
22321;DHT22;11328;53.928;18.522;2023-08-08T03:59:33;14.60;99.90
22321;DHT22;11328;53.928;18.522;2023-08-08T04:02:00;14.60;99.90
22321;DHT22;11328;53.928;18.522;2023-08-08T04:04:27;14.50;99.90
22321;DHT22;11328;53.928;18.522;2023-08-08T04:06:54;14.50;99.90
22321;DHT22;11328;53.928;18.522;2023-08-08T04:09:21;14.60;99.90
22321;DHT22;11328;53.928;18.522;2023-08-08T04:11:48;14.70;99.90
22321;DHT22;11328;53.928;18.522;2023-08-08T04:14:15;14.70;99.90
22321;DHT22;11328;53.928;18.522;2023-08-08T04:16:42;14.70;99.90
22321;DHT22;11328;53.928;18.522;2023-08-08T04:19:09;14.60;99.90
22321;DHT22;11328;53.928;18.522;2023-08-08T04:21:36;14.60;99.90
22321;DHT22;11328;53.928;18.522;2023-08-08T04:24:03;14.60;99.90
22321;DHT22;11328;53.928;18.522;2023-08-08T04:26:30;14.70;99.90
22321;DHT22;11328;53.928;18.522;2023-08-08T04:28:57;14.70;99.90
22321;DHT22;11328;53.928;18.522;2023-08-08T04:31:24;14.70;99.90
22321;DHT22;11328;53.928;18.522;2023-08-08T04:33:52;14.70;99.90
22321;DHT22;11328;53.928;18.522;2023-08-08T04:36:28;14.70;99.90
22321;DHT22;11328;53.928;18.522;2023-08-08T04:38:56;14.80;99.90
22321;DHT22;11328;53.928;18.522;2023-08-08T04:41:23;14.70;99.90
22321;DHT22;11328;53.928;18.522;2023-08-08T04:43:50;14.70;99.90
22321;DHT22;11328;53.928;18.522;2023-08-08T04:46:17;14.80;99.90
22321;DHT22;11328;53.928;18.522;2023-08-08T04:48:44;14.70;99.90
22321;DHT22;11328;53.928;18.522;2023-08-08T04:51:11;14.80;99.90
22321;DHT22;11328;53.928;18.522;2023-08-08T04:53:38;14.90;99.90
22321;DHT22;11328;53.928;18.522;2023-08-08T04:56:05;15.00;99.90
22321;DHT22;11328;53.928;18.522;2023-08-08T04:58:32;15.00;99.90
22321;DHT22;11328;53.928;18.522;2023-08-08T05:00:59;15.00;99.90
22321;DHT22;11328;53.928;18.522;2023-08-08T05:03:26;15.10;99.90
22321;DHT22;11328;53.928;18.522;2023-08-08T05:05:53;15.10;99.90
22321;DHT22;11328;53.928;18.522;2023-08-08T05:08:20;15.00;99.90
22321;DHT22;11328;53.928;18.522;2023-08-08T05:10:47;15.10;99.90
22321;DHT22;11328;53.928;18.522;2023-08-08T05:13:14;15.10;99.90
22321;DHT22;11328;53.928;18.522;2023-08-08T05:15:41;15.20;99.90
22321;DHT22;11328;53.928;18.522;2023-08-08T05:18:08;15.20;99.90
22321;DHT22;11328;53.928;18.522;2023-08-08T05:20:35;15.20;99.90
22321;DHT22;11328;53.928;18.522;2023-08-08T05:23:02;15.30;99.90
22321;DHT22;11328;53.928;18.522;2023-08-08T05:25:29;15.20;99.90
22321;DHT22;11328;53.928;18.522;2023-08-08T05:27:56;15.30;99.90
22321;DHT22;11328;53.928;18.522;2023-08-08T05:30:23;15.30;99.90
22321;DHT22;11328;53.928;18.522;2023-08-08T05:32:50;15.40;99.90
22321;DHT22;11328;53.928;18.522;2023-08-08T05:35:17;15.40;99.90
22321;DHT22;11328;53.928;18.522;2023-08-08T05:37:44;15.40;99.90
22321;DHT22;11328;53.928;18.522;2023-08-08T05:40:11;15.40;99.90
22321;DHT22;11328;53.928;18.522;2023-08-08T05:42:38;15.40;99.90
22321;DHT22;11328;53.928;18.522;2023-08-08T05:45:06;15.40;99.90
22321;DHT22;11328;53.928;18.522;2023-08-08T05:47:34;15.50;99.90
22321;DHT22;11328;53.928;18.522;2023-08-08T05:50:01;15.50;99.90
22321;DHT22;11328;53.928;18.522;2023-08-08T05:52:29;15.50;99.90
22321;DHT22;11328;53.928;18.522;2023-08-08T05:54:56;15.50;99.90
22321;DHT22;11328;53.928;18.522;2023-08-08T05:57:23;15.60;99.90
22321;DHT22;11328;53.928;18.522;2023-08-08T05:59:50;15.60;99.90
22321;DHT22;11328;53.928;18.522;2023-08-08T06:02:16;15.70;99.90
22321;DHT22;11328;53.928;18.522;2023-08-08T06:04:44;15.70;99.90
22321;DHT22;11328;53.928;18.522;2023-08-08T06:07:11;15.70;99.90
22321;DHT22;11328;53.928;18.522;2023-08-08T06:09:38;15.70;99.90
22321;DHT22;11328;53.928;18.522;2023-08-08T06:12:06;15.90;99.90
22321;DHT22;11328;53.928;18.522;2023-08-08T06:14:34;15.90;99.90
22321;DHT22;11328;53.928;18.522;2023-08-08T06:17:01;16.00;99.90
22321;DHT22;11328;53.928;18.522;2023-08-08T06:19:27;16.00;99.90
22321;DHT22;11328;53.928;18.522;2023-08-08T06:21:54;16.10;99.90
22321;DHT22;11328;53.928;18.522;2023-08-08T06:24:21;16.00;99.90
22321;DHT22;11328;53.928;18.522;2023-08-08T06:26:48;16.00;99.90
22321;DHT22;11328;53.928;18.522;2023-08-08T06:29:15;15.90;99.90
22321;DHT22;11328;53.928;18.522;2023-08-08T06:31:43;16.00;99.90
22321;DHT22;11328;53.928;18.522;2023-08-08T06:34:10;16.00;99.90
22321;DHT22;11328;53.928;18.522;2023-08-08T06:36:37;16.30;99.90
22321;DHT22;11328;53.928;18.522;2023-08-08T06:39:04;16.50;99.90
22321;DHT22;11328;53.928;18.522;2023-08-08T06:41:32;16.70;99.90
22321;DHT22;11328;53.928;18.522;2023-08-08T06:43:59;16.90;99.90
22321;DHT22;11328;53.928;18.522;2023-08-08T06:46:26;17.10;99.90
22321;DHT22;11328;53.928;18.522;2023-08-08T06:48:53;17.30;99.90
22321;DHT22;11328;53.928;18.522;2023-08-08T06:51:25;17.30;99.90
22321;DHT22;11328;53.928;18.522;2023-08-08T06:53:53;17.40;99.90
22321;DHT22;11328;53.928;18.522;2023-08-08T06:56:20;17.40;99.90
22321;DHT22;11328;53.928;18.522;2023-08-08T06:58:47;17.30;99.90
22321;DHT22;11328;53.928;18.522;2023-08-08T07:01:14;17.30;99.90
22321;DHT22;11328;53.928;18.522;2023-08-08T07:03:41;17.20;99.90
22321;DHT22;11328;53.928;18.522;2023-08-08T07:06:09;17.30;99.90
22321;DHT22;11328;53.928;18.522;2023-08-08T07:08:36;17.30;99.90
22321;DHT22;11328;53.928;18.522;2023-08-08T07:11:06;17.20;99.90
22321;DHT22;11328;53.928;18.522;2023-08-08T07:13:33;17.00;99.90
22321;DHT22;11328;53.928;18.522;2023-08-08T07:16:00;16.80;99.90
22321;DHT22;11328;53.928;18.522;2023-08-08T07:18:28;16.90;99.90
22321;DHT22;11328;53.928;18.522;2023-08-08T07:20:55;16.80;99.90
22321;DHT22;11328;53.928;18.522;2023-08-08T07:23:23;16.90;99.90
22321;DHT22;11328;53.928;18.522;2023-08-08T07:25:50;17.00;99.90
22321;DHT22;11328;53.928;18.522;2023-08-08T07:28:17;17.10;99.90
22321;DHT22;11328;53.928;18.522;2023-08-08T07:30:44;17.20;99.90
22321;DHT22;11328;53.928;18.522;2023-08-08T07:33:11;17.30;99.90
22321;DHT22;11328;53.928;18.522;2023-08-08T07:35:40;17.00;99.90
22321;DHT22;11328;53.928;18.522;2023-08-08T07:38:07;17.10;99.90
22321;DHT22;11328;53.928;18.522;2023-08-08T07:40:35;17.00;99.90
22321;DHT22;11328;53.928;18.522;2023-08-08T07:43:02;16.60;99.90
22321;DHT22;11328;53.928;18.522;2023-08-08T07:45:29;16.50;99.90
22321;DHT22;11328;53.928;18.522;2023-08-08T07:47:56;16.60;99.90
22321;DHT22;11328;53.928;18.522;2023-08-08T07:50:23;16.80;99.90
22321;DHT22;11328;53.928;18.522;2023-08-08T07:52:51;16.80;99.90
22321;DHT22;11328;53.928;18.522;2023-08-08T07:55:17;16.70;99.90
22321;DHT22;11328;53.928;18.522;2023-08-08T07:57:45;16.80;99.90
22321;DHT22;11328;53.928;18.522;2023-08-08T08:00:12;17.00;99.90
22321;DHT22;11328;53.928;18.522;2023-08-08T08:02:41;17.20;99.90
22321;DHT22;11328;53.928;18.522;2023-08-08T08:05:10;17.10;99.90
22321;DHT22;11328;53.928;18.522;2023-08-08T08:07:38;17.00;99.90
22321;DHT22;11328;53.928;18.522;2023-08-08T08:10:08;17.00;99.90
22321;DHT22;11328;53.928;18.522;2023-08-08T08:12:36;17.00;99.90
22321;DHT22;11328;53.928;18.522;2023-08-08T08:15:04;17.00;99.90
22321;DHT22;11328;53.928;18.522;2023-08-08T08:17:31;17.30;99.90
22321;DHT22;11328;53.928;18.522;2023-08-08T08:19:59;17.20;99.90
22321;DHT22;11328;53.928;18.522;2023-08-08T08:22:26;17.20;99.90
22321;DHT22;11328;53.928;18.522;2023-08-08T08:24:53;17.10;99.90
22321;DHT22;11328;53.928;18.522;2023-08-08T08:27:19;17.10;99.90
22321;DHT22;11328;53.928;18.522;2023-08-08T08:29:47;17.20;99.90
22321;DHT22;11328;53.928;18.522;2023-08-08T08:32:14;17.30;99.90
22321;DHT22;11328;53.928;18.522;2023-08-08T08:34:41;17.50;99.90
22321;DHT22;11328;53.928;18.522;2023-08-08T08:37:08;17.60;99.90
22321;DHT22;11328;53.928;18.522;2023-08-08T08:39:35;17.50;99.90
22321;DHT22;11328;53.928;18.522;2023-08-08T08:42:04;17.30;99.90
22321;DHT22;11328;53.928;18.522;2023-08-08T08:44:32;17.20;99.90
22321;DHT22;11328;53.928;18.522;2023-08-08T08:47:03;17.20;99.90
22321;DHT22;11328;53.928;18.522;2023-08-08T08:49:31;17.20;99.90
22321;DHT22;11328;53.928;18.522;2023-08-08T08:51:59;17.30;99.90
22321;DHT22;11328;53.928;18.522;2023-08-08T08:54:32;17.60;99.90
22321;DHT22;11328;53.928;18.522;2023-08-08T08:56:59;17.90;99.90
22321;DHT22;11328;53.928;18.522;2023-08-08T08:59:26;18.10;99.90
22321;DHT22;11328;53.928;18.522;2023-08-08T09:01:54;18.00;99.90
22321;DHT22;11328;53.928;18.522;2023-08-08T09:04:22;17.70;99.90
22321;DHT22;11328;53.928;18.522;2023-08-08T09:06:50;17.70;99.90
22321;DHT22;11328;53.928;18.522;2023-08-08T09:09:19;17.80;99.90
22321;DHT22;11328;53.928;18.522;2023-08-08T09:11:50;17.80;99.90
22321;DHT22;11328;53.928;18.522;2023-08-08T09:14:27;18.10;99.90
22321;DHT22;11328;53.928;18.522;2023-08-08T09:16:54;18.40;99.90
22321;DHT22;11328;53.928;18.522;2023-08-08T09:19:24;18.60;99.90
22321;DHT22;11328;53.928;18.522;2023-08-08T09:21:52;18.50;99.90
22321;DHT22;11328;53.928;18.522;2023-08-08T09:24:20;18.60;99.90
22321;DHT22;11328;53.928;18.522;2023-08-08T09:26:47;18.40;99.90
22321;DHT22;11328;53.928;18.522;2023-08-08T09:29:14;18.00;99.90
22321;DHT22;11328;53.928;18.522;2023-08-08T09:31:42;17.70;99.90
22321;DHT22;11328;53.928;18.522;2023-08-08T09:34:09;17.70;99.90
22321;DHT22;11328;53.928;18.522;2023-08-08T09:36:36;18.20;99.90
22321;DHT22;11328;53.928;18.522;2023-08-08T09:39:04;18.50;99.90
22321;DHT22;11328;53.928;18.522;2023-08-08T09:41:32;18.60;99.90
22321;DHT22;11328;53.928;18.522;2023-08-08T09:43:59;19.00;99.90
22321;DHT22;11328;53.928;18.522;2023-08-08T09:46:29;19.40;99.90
22321;DHT22;11328;53.928;18.522;2023-08-08T09:49:00;19.60;99.90
22321;DHT22;11328;53.928;18.522;2023-08-08T09:51:28;19.60;99.90
22321;DHT22;11328;53.928;18.522;2023-08-08T09:53:55;19.30;99.90
22321;DHT22;11328;53.928;18.522;2023-08-08T09:56:24;19.00;99.90
22321;DHT22;11328;53.928;18.522;2023-08-08T09:58:52;19.00;99.90
22321;DHT22;11328;53.928;18.522;2023-08-08T10:01:20;19.10;99.90
22321;DHT22;11328;53.928;18.522;2023-08-08T10:03:49;19.10;99.90
22321;DHT22;11328;53.928;18.522;2023-08-08T10:06:19;19.40;99.90
22321;DHT22;11328;53.928;18.522;2023-08-08T10:08:46;19.70;99.90
22321;DHT22;11328;53.928;18.522;2023-08-08T10:11:14;19.30;99.90
22321;DHT22;11328;53.928;18.522;2023-08-08T10:13:49;19.40;99.90
22321;DHT22;11328;53.928;18.522;2023-08-08T10:16:17;19.30;99.90
22321;DHT22;11328;53.928;18.522;2023-08-08T10:19:02;19.10;99.90
22321;DHT22;11328;53.928;18.522;2023-08-08T10:21:41;18.90;99.90
22321;DHT22;11328;53.928;18.522;2023-08-08T10:24:10;18.70;99.90
22321;DHT22;11328;53.928;18.522;2023-08-08T10:26:57;18.90;99.90
22321;DHT22;11328;53.928;18.522;2023-08-08T10:29:28;19.00;99.90
22321;DHT22;11328;53.928;18.522;2023-08-08T10:32:04;19.10;99.90
22321;DHT22;11328;53.928;18.522;2023-08-08T10:34:44;19.20;99.90
22321;DHT22;11328;53.928;18.522;2023-08-08T10:37:17;19.70;99.90
22321;DHT22;11328;53.928;18.522;2023-08-08T10:39:58;19.90;99.90
22321;DHT22;11328;53.928;18.522;2023-08-08T10:42:28;19.70;99.90
22321;DHT22;11328;53.928;18.522;2023-08-08T10:44:57;19.50;99.90
22321;DHT22;11328;53.928;18.522;2023-08-08T10:47:31;19.40;99.90
22321;DHT22;11328;53.928;18.522;2023-08-08T10:50:06;19.20;99.90
22321;DHT22;11328;53.928;18.522;2023-08-08T10:52:55;19.40;99.90
22321;DHT22;11328;53.928;18.522;2023-08-08T10:55:34;19.90;99.90
22321;DHT22;11328;53.928;18.522;2023-08-08T10:58:07;19.80;99.90
22321;DHT22;11328;53.928;18.522;2023-08-08T11:00:39;19.80;99.90
22321;DHT22;11328;53.928;18.522;2023-08-08T11:03:08;19.70;99.90
22321;DHT22;11328;53.928;18.522;2023-08-08T11:05:37;19.70;99.90
22321;DHT22;11328;53.928;18.522;2023-08-08T11:08:06;19.80;99.90
22321;DHT22;11328;53.928;18.522;2023-08-08T11:10:38;20.00;99.90
22321;DHT22;11328;53.928;18.522;2023-08-08T11:13:07;20.10;99.90
22321;DHT22;11328;53.928;18.522;2023-08-08T11:15:36;20.00;99.90
22321;DHT22;11328;53.928;18.522;2023-08-08T11:18:05;20.00;99.90
22321;DHT22;11328;53.928;18.522;2023-08-08T11:20:34;19.90;99.90
22321;DHT22;11328;53.928;18.522;2023-08-08T11:23:02;19.80;99.90
22321;DHT22;11328;53.928;18.522;2023-08-08T11:25:32;19.60;99.90
22321;DHT22;11328;53.928;18.522;2023-08-08T11:27:59;19.80;99.90
22321;DHT22;11328;53.928;18.522;2023-08-08T11:30:33;20.10;99.90
22321;DHT22;11328;53.928;18.522;2023-08-08T11:33:03;20.40;99.90
22321;DHT22;11328;53.928;18.522;2023-08-08T11:35:34;20.50;99.90
22321;DHT22;11328;53.928;18.522;2023-08-08T11:38:02;20.50;99.90
22321;DHT22;11328;53.928;18.522;2023-08-08T11:40:31;20.30;99.90
22321;DHT22;11328;53.928;18.522;2023-08-08T11:42:59;20.10;99.90
22321;DHT22;11328;53.928;18.522;2023-08-08T11:45:26;19.80;99.90
22321;DHT22;11328;53.928;18.522;2023-08-08T11:47:55;19.50;99.90
22321;DHT22;11328;53.928;18.522;2023-08-08T11:50:25;18.20;99.90
22321;DHT22;11328;53.928;18.522;2023-08-08T11:52:55;17.80;99.90
22321;DHT22;11328;53.928;18.522;2023-08-08T11:55:28;18.00;99.90
22321;DHT22;11328;53.928;18.522;2023-08-08T11:57:56;18.20;99.90
22321;DHT22;11328;53.928;18.522;2023-08-08T12:00:28;18.40;99.90
22321;DHT22;11328;53.928;18.522;2023-08-08T12:02:58;18.40;99.90
22321;DHT22;11328;53.928;18.522;2023-08-08T12:05:28;18.50;99.90
22321;DHT22;11328;53.928;18.522;2023-08-08T12:07:55;18.60;99.90
22321;DHT22;11328;53.928;18.522;2023-08-08T12:10:23;18.80;99.90
22321;DHT22;11328;53.928;18.522;2023-08-08T12:12:56;19.00;99.90
22321;DHT22;11328;53.928;18.522;2023-08-08T12:15:33;19.00;99.90
22321;DHT22;11328;53.928;18.522;2023-08-08T12:18:02;18.80;99.90
22321;DHT22;11328;53.928;18.522;2023-08-08T12:20:31;19.00;99.90
22321;DHT22;11328;53.928;18.522;2023-08-08T12:22:59;18.90;99.90
22321;DHT22;11328;53.928;18.522;2023-08-08T12:25:26;19.00;99.90
22321;DHT22;11328;53.928;18.522;2023-08-08T12:27:54;19.00;99.90
22321;DHT22;11328;53.928;18.522;2023-08-08T12:30:21;19.00;99.90
22321;DHT22;11328;53.928;18.522;2023-08-08T12:32:48;19.10;99.90
22321;DHT22;11328;53.928;18.522;2023-08-08T12:35:15;19.40;99.90
22321;DHT22;11328;53.928;18.522;2023-08-08T12:37:43;19.60;99.90
22321;DHT22;11328;53.928;18.522;2023-08-08T12:40:11;19.90;99.90
22321;DHT22;11328;53.928;18.522;2023-08-08T12:42:39;19.90;99.90
22321;DHT22;11328;53.928;18.522;2023-08-08T12:45:07;20.00;99.90
22321;DHT22;11328;53.928;18.522;2023-08-08T12:47:34;19.80;99.90
22321;DHT22;11328;53.928;18.522;2023-08-08T12:50:05;19.90;99.90
22321;DHT22;11328;53.928;18.522;2023-08-08T12:52:32;20.00;99.90
22321;DHT22;11328;53.928;18.522;2023-08-08T12:55:00;19.90;99.90
22321;DHT22;11328;53.928;18.522;2023-08-08T12:57:27;19.90;99.90
22321;DHT22;11328;53.928;18.522;2023-08-08T12:59:54;19.80;99.90
22321;DHT22;11328;53.928;18.522;2023-08-08T13:02:21;19.70;99.90
22321;DHT22;11328;53.928;18.522;2023-08-08T13:04:48;19.80;99.90
22321;DHT22;11328;53.928;18.522;2023-08-08T13:07:16;20.00;99.90
22321;DHT22;11328;53.928;18.522;2023-08-08T13:09:43;19.80;99.90
22321;DHT22;11328;53.928;18.522;2023-08-08T13:12:10;19.50;99.90
22321;DHT22;11328;53.928;18.522;2023-08-08T13:14:37;19.50;99.90
22321;DHT22;11328;53.928;18.522;2023-08-08T13:17:04;19.20;99.90
22321;DHT22;11328;53.928;18.522;2023-08-08T13:19:31;18.90;99.90
22321;DHT22;11328;53.928;18.522;2023-08-08T13:21:58;18.30;99.90
22321;DHT22;11328;53.928;18.522;2023-08-08T13:24:25;17.80;99.90
22321;DHT22;11328;53.928;18.522;2023-08-08T13:26:52;17.50;99.90
22321;DHT22;11328;53.928;18.522;2023-08-08T13:29:19;17.10;99.90
22321;DHT22;11328;53.928;18.522;2023-08-08T13:31:49;17.10;99.90
22321;DHT22;11328;53.928;18.522;2023-08-08T13:34:16;17.20;99.90
22321;DHT22;11328;53.928;18.522;2023-08-08T13:36:43;17.00;99.90
22321;DHT22;11328;53.928;18.522;2023-08-08T13:39:10;17.00;99.90
22321;DHT22;11328;53.928;18.522;2023-08-08T13:41:37;17.10;99.90
22321;DHT22;11328;53.928;18.522;2023-08-08T13:44:04;17.30;99.90
22321;DHT22;11328;53.928;18.522;2023-08-08T13:46:31;17.30;99.90
22321;DHT22;11328;53.928;18.522;2023-08-08T13:48:58;17.50;99.90
22321;DHT22;11328;53.928;18.522;2023-08-08T13:51:25;17.50;99.90
22321;DHT22;11328;53.928;18.522;2023-08-08T13:53:52;17.60;99.90
22321;DHT22;11328;53.928;18.522;2023-08-08T13:56:19;17.60;99.90
22321;DHT22;11328;53.928;18.522;2023-08-08T13:58:47;17.70;99.90
22321;DHT22;11328;53.928;18.522;2023-08-08T14:01:14;17.80;99.90
22321;DHT22;11328;53.928;18.522;2023-08-08T14:03:41;17.90;99.90
22321;DHT22;11328;53.928;18.522;2023-08-08T14:06:08;18.10;99.90
22321;DHT22;11328;53.928;18.522;2023-08-08T14:08:35;18.40;99.90
22321;DHT22;11328;53.928;18.522;2023-08-08T14:11:02;18.40;99.90
22321;DHT22;11328;53.928;18.522;2023-08-08T14:13:29;18.60;99.90
22321;DHT22;11328;53.928;18.522;2023-08-08T14:15:56;18.60;99.90
22321;DHT22;11328;53.928;18.522;2023-08-08T14:18:23;18.60;99.90
22321;DHT22;11328;53.928;18.522;2023-08-08T14:20:50;18.70;99.90
22321;DHT22;11328;53.928;18.522;2023-08-08T14:23:17;18.80;99.90
22321;DHT22;11328;53.928;18.522;2023-08-08T14:25:44;18.90;99.90
22321;DHT22;11328;53.928;18.522;2023-08-08T14:28:11;18.80;99.90
22321;DHT22;11328;53.928;18.522;2023-08-08T14:30:38;18.90;99.90
22321;DHT22;11328;53.928;18.522;2023-08-08T14:33:05;18.90;99.90
22321;DHT22;11328;53.928;18.522;2023-08-08T14:35:32;19.10;99.90
22321;DHT22;11328;53.928;18.522;2023-08-08T14:37:58;19.30;99.90
22321;DHT22;11328;53.928;18.522;2023-08-08T14:40:26;19.40;99.90
22321;DHT22;11328;53.928;18.522;2023-08-08T14:42:54;19.60;99.90
22321;DHT22;11328;53.928;18.522;2023-08-08T14:45:23;19.50;99.90
22321;DHT22;11328;53.928;18.522;2023-08-08T14:47:50;19.40;99.90
22321;DHT22;11328;53.928;18.522;2023-08-08T14:50:18;19.30;99.90
22321;DHT22;11328;53.928;18.522;2023-08-08T14:52:45;19.30;99.90
22321;DHT22;11328;53.928;18.522;2023-08-08T14:55:12;19.20;99.90
22321;DHT22;11328;53.928;18.522;2023-08-08T14:57:39;19.20;99.90
22321;DHT22;11328;53.928;18.522;2023-08-08T15:00:07;19.20;99.90
22321;DHT22;11328;53.928;18.522;2023-08-08T15:02:35;19.20;99.90
22321;DHT22;11328;53.928;18.522;2023-08-08T15:05:03;19.30;99.90
22321;DHT22;11328;53.928;18.522;2023-08-08T15:07:30;19.40;99.90
22321;DHT22;11328;53.928;18.522;2023-08-08T15:09:57;19.40;99.90
22321;DHT22;11328;53.928;18.522;2023-08-08T15:12:24;19.50;99.90
22321;DHT22;11328;53.928;18.522;2023-08-08T15:14:51;19.50;99.90
22321;DHT22;11328;53.928;18.522;2023-08-08T15:17:18;19.60;99.90
22321;DHT22;11328;53.928;18.522;2023-08-08T15:19:45;19.70;99.90
22321;DHT22;11328;53.928;18.522;2023-08-08T15:22:12;19.70;99.90
22321;DHT22;11328;53.928;18.522;2023-08-08T15:24:39;19.80;99.90